sensor_id;sensor_type;location;lat;lon;timestamp;P1;durP1;ratioP1;P2;durP2;ratioP2
75516;SDS011;64097;52.548;13.406;2022-11-21T06:01:51;20.95;;;14.70;;
75516;SDS011;64097;52.548;13.406;2022-11-21T06:04:35;20.23;;;14.98;;
75516;SDS011;64097;52.548;13.406;2022-11-21T06:07:01;20.10;;;14.48;;
75516;SDS011;64097;52.548;13.406;2022-11-21T06:09:29;20.00;;;15.00;;
75516;SDS011;64097;52.548;13.406;2022-11-21T06:11:55;20.73;;;15.60;;
75516;SDS011;64097;52.548;13.406;2022-11-21T06:14:21;22.75;;;16.42;;
75516;SDS011;64097;52.548;13.406;2022-11-21T06:16:46;24.63;;;16.67;;
75516;SDS011;64097;52.548;13.406;2022-11-21T06:19:12;22.63;;;16.80;;
75516;SDS011;64097;52.548;13.406;2022-11-21T06:21:38;20.80;;;15.23;;
75516;SDS011;64097;52.548;13.406;2022-11-21T06:24:05;19.98;;;15.13;;
75516;SDS011;64097;52.548;13.406;2022-11-21T06:26:31;19.83;;;14.32;;
75516;SDS011;64097;52.548;13.406;2022-11-21T06:28:57;18.85;;;13.38;;
75516;SDS011;64097;52.548;13.406;2022-11-21T06:31:24;23.33;;;16.42;;
75516;SDS011;64097;52.548;13.406;2022-11-21T06:33:54;26.02;;;18.50;;
75516;SDS011;64097;52.548;13.406;2022-11-21T06:36:21;20.65;;;15.75;;
75516;SDS011;64097;52.548;13.406;2022-11-21T06:38:47;20.58;;;15.05;;
75516;SDS011;64097;52.548;13.406;2022-11-21T06:41:17;23.27;;;17.08;;
75516;SDS011;64097;52.548;13.406;2022-11-21T06:43:45;22.42;;;15.98;;
75516;SDS011;64097;52.548;13.406;2022-11-21T06:46:11;23.30;;;16.25;;
75516;SDS011;64097;52.548;13.406;2022-11-21T06:48:38;24.58;;;17.90;;
75516;SDS011;64097;52.548;13.406;2022-11-21T06:51:04;23.63;;;17.88;;
75516;SDS011;64097;52.548;13.406;2022-11-21T06:53:32;25.75;;;18.10;;
75516;SDS011;64097;52.548;13.406;2022-11-21T06:55:59;24.88;;;17.05;;
75516;SDS011;64097;52.548;13.406;2022-11-21T06:58:28;23.90;;;17.10;;
75516;SDS011;64097;52.548;13.406;2022-11-21T07:00:54;27.80;;;18.55;;
75516;SDS011;64097;52.548;13.406;2022-11-21T07:03:20;26.20;;;18.50;;
75516;SDS011;64097;52.548;13.406;2022-11-21T07:05:46;29.27;;;20.35;;
75516;SDS011;64097;52.548;13.406;2022-11-21T07:08:13;28.23;;;20.60;;
75516;SDS011;64097;52.548;13.406;2022-11-21T07:10:39;28.35;;;19.92;;
75516;SDS011;64097;52.548;13.406;2022-11-21T07:13:05;26.58;;;18.60;;
75516;SDS011;64097;52.548;13.406;2022-11-21T07:15:47;27.50;;;19.77;;
75516;SDS011;64097;52.548;13.406;2022-11-21T07:18:14;26.55;;;18.40;;
75516;SDS011;64097;52.548;13.406;2022-11-21T07:20:40;24.58;;;16.98;;
75516;SDS011;64097;52.548;13.406;2022-11-21T07:23:07;23.85;;;16.65;;
75516;SDS011;64097;52.548;13.406;2022-11-21T07:25:33;29.60;;;20.92;;
75516;SDS011;64097;52.548;13.406;2022-11-21T07:27:59;27.17;;;18.63;;
75516;SDS011;64097;52.548;13.406;2022-11-21T07:30:27;24.98;;;18.38;;
75516;SDS011;64097;52.548;13.406;2022-11-21T07:33:00;25.90;;;18.55;;
75516;SDS011;64097;52.548;13.406;2022-11-21T07:35:28;27.17;;;18.88;;
75516;SDS011;64097;52.548;13.406;2022-11-21T07:37:54;24.73;;;16.83;;
75516;SDS011;64097;52.548;13.406;2022-11-21T07:40:20;20.92;;;15.95;;
75516;SDS011;64097;52.548;13.406;2022-11-21T07:42:46;22.90;;;16.05;;
75516;SDS011;64097;52.548;13.406;2022-11-21T07:45:12;26.05;;;18.27;;
75516;SDS011;64097;52.548;13.406;2022-11-21T07:47:39;31.27;;;20.67;;
75516;SDS011;64097;52.548;13.406;2022-11-21T07:50:06;25.70;;;18.02;;
75516;SDS011;64097;52.548;13.406;2022-11-21T07:52:32;28.23;;;19.10;;
75516;SDS011;64097;52.548;13.406;2022-11-21T07:54:58;28.10;;;18.40;;
75516;SDS011;64097;52.548;13.406;2022-11-21T07:57:26;31.73;;;21.45;;
75516;SDS011;64097;52.548;13.406;2022-11-21T07:59:53;31.35;;;21.42;;
75516;SDS011;64097;52.548;13.406;2022-11-21T08:02:19;32.10;;;20.58;;
75516;SDS011;64097;52.548;13.406;2022-11-21T08:04:47;29.08;;;19.70;;
75516;SDS011;64097;52.548;13.406;2022-11-21T08:07:13;31.73;;;21.23;;
75516;SDS011;64097;52.548;13.406;2022-11-21T08:09:43;34.47;;;21.83;;
75516;SDS011;64097;52.548;13.406;2022-11-21T08:12:09;30.00;;;20.45;;
75516;SDS011;64097;52.548;13.406;2022-11-21T08:14:35;31.23;;;21.05;;
75516;SDS011;64097;52.548;13.406;2022-11-21T08:17:02;27.35;;;19.15;;
75516;SDS011;64097;52.548;13.406;2022-11-21T08:19:28;27.30;;;17.65;;
75516;SDS011;64097;52.548;13.406;2022-11-21T08:21:54;31.80;;;20.95;;
75516;SDS011;64097;52.548;13.406;2022-11-21T08:24:20;28.08;;;18.13;;
75516;SDS011;64097;52.548;13.406;2022-11-21T08:26:46;25.52;;;17.48;;
75516;SDS011;64097;52.548;13.406;2022-11-21T08:29:13;25.98;;;18.00;;
75516;SDS011;64097;52.548;13.406;2022-11-21T08:31:42;25.80;;;16.30;;
75516;SDS011;64097;52.548;13.406;2022-11-21T08:34:08;23.67;;;15.45;;
75516;SDS011;64097;52.548;13.406;2022-11-21T08:36:34;24.80;;;17.25;;
75516;SDS011;64097;52.548;13.406;2022-11-21T08:39:00;24.45;;;16.35;;
75516;SDS011;64097;52.548;13.406;2022-11-21T08:41:26;25.25;;;16.77;;
75516;SDS011;64097;52.548;13.406;2022-11-21T08:44:11;27.85;;;19.67;;
75516;SDS011;64097;52.548;13.406;2022-11-21T08:46:36;24.38;;;16.90;;
75516;SDS011;64097;52.548;13.406;2022-11-21T08:49:02;25.92;;;16.75;;
75516;SDS011;64097;52.548;13.406;2022-11-21T08:51:28;23.70;;;16.10;;
75516;SDS011;64097;52.548;13.406;2022-11-21T08:53:54;26.50;;;16.63;;
75516;SDS011;64097;52.548;13.406;2022-11-21T08:56:20;24.98;;;16.38;;
75516;SDS011;64097;52.548;13.406;2022-11-21T08:58:46;24.23;;;16.00;;
75516;SDS011;64097;52.548;13.406;2022-11-21T09:01:11;23.92;;;15.70;;
75516;SDS011;64097;52.548;13.406;2022-11-21T09:03:37;25.27;;;15.63;;
75516;SDS011;64097;52.548;13.406;2022-11-21T09:06:03;27.48;;;17.58;;
75516;SDS011;64097;52.548;13.406;2022-11-21T09:08:29;29.23;;;18.23;;
75516;SDS011;64097;52.548;13.406;2022-11-21T09:10:55;25.23;;;15.57;;
75516;SDS011;64097;52.548;13.406;2022-11-21T09:13:21;23.85;;;15.25;;
75516;SDS011;64097;52.548;13.406;2022-11-21T09:15:47;23.73;;;15.25;;
75516;SDS011;64097;52.548;13.406;2022-11-21T09:18:32;25.88;;;16.75;;
75516;SDS011;64097;52.548;13.406;2022-11-21T09:20:58;22.83;;;13.55;;
75516;SDS011;64097;52.548;13.406;2022-11-21T09:23:24;22.50;;;13.98;;
75516;SDS011;64097;52.548;13.406;2022-11-21T09:25:50;26.20;;;16.13;;
75516;SDS011;64097;52.548;13.406;2022-11-21T09:28:15;22.42;;;14.07;;
75516;SDS011;64097;52.548;13.406;2022-11-21T09:30:41;19.20;;;12.27;;
75516;SDS011;64097;52.548;13.406;2022-11-21T09:33:11;18.50;;;12.48;;
75516;SDS011;64097;52.548;13.406;2022-11-21T09:35:38;17.30;;;11.85;;
75516;SDS011;64097;52.548;13.406;2022-11-21T09:38:04;14.55;;;10.65;;
75516;SDS011;64097;52.548;13.406;2022-11-21T09:40:30;18.83;;;11.98;;
75516;SDS011;64097;52.548;13.406;2022-11-21T09:46:05;16.75;;;11.27;;
75516;SDS011;64097;52.548;13.406;2022-11-21T09:48:35;14.48;;;10.10;;
75516;SDS011;64097;52.548;13.406;2022-11-21T09:51:10;14.27;;;9.40;;
75516;SDS011;64097;52.548;13.406;2022-11-21T09:56:23;17.20;;;11.85;;
75516;SDS011;64097;52.548;13.406;2022-11-21T09:59:02;17.35;;;12.23;;
75516;SDS011;64097;52.548;13.406;2022-11-21T10:01:30;18.77;;;12.95;;
75516;SDS011;64097;52.548;13.406;2022-11-21T10:03:56;16.55;;;11.50;;
75516;SDS011;64097;52.548;13.406;2022-11-21T10:06:25;17.48;;;12.80;;
75516;SDS011;64097;52.548;13.406;2022-11-21T10:20:20;17.25;;;11.57;;
75516;SDS011;64097;52.548;13.406;2022-11-21T10:25:35;14.40;;;10.05;;
75516;SDS011;64097;52.548;13.406;2022-11-21T10:30:31;15.02;;;10.35;;
75516;SDS011;64097;52.548;13.406;2022-11-21T10:33:02;13.95;;;9.50;;
75516;SDS011;64097;52.548;13.406;2022-11-21T10:38:24;12.63;;;9.00;;
75516;SDS011;64097;52.548;13.406;2022-11-21T10:43:24;13.65;;;9.70;;
75516;SDS011;64097;52.548;13.406;2022-11-21T10:46:32;12.15;;;8.60;;
75516;SDS011;64097;52.548;13.406;2022-11-21T10:48:58;13.30;;;9.32;;
75516;SDS011;64097;52.548;13.406;2022-11-21T10:51:43;11.85;;;8.40;;
75516;SDS011;64097;52.548;13.406;2022-11-21T10:54:15;11.30;;;8.35;;
75516;SDS011;64097;52.548;13.406;2022-11-21T10:59:38;11.85;;;8.98;;
75516;SDS011;64097;52.548;13.406;2022-11-21T11:04:38;12.45;;;8.50;;
75516;SDS011;64097;52.548;13.406;2022-11-21T11:07:24;11.35;;;8.02;;
75516;SDS011;64097;52.548;13.406;2022-11-21T11:09:51;9.65;;;7.70;;
75516;SDS011;64097;52.548;13.406;2022-11-21T11:12:37;10.15;;;7.68;;
75516;SDS011;64097;52.548;13.406;2022-11-21T11:15:22;13.55;;;9.80;;
75516;SDS011;64097;52.548;13.406;2022-11-21T11:17:57;11.05;;;7.95;;
75516;SDS011;64097;52.548;13.406;2022-11-21T11:22:57;13.48;;;9.30;;
75516;SDS011;64097;52.548;13.406;2022-11-21T11:25:23;11.07;;;8.07;;
75516;SDS011;64097;52.548;13.406;2022-11-21T11:27:49;16.55;;;11.48;;
75516;SDS011;64097;52.548;13.406;2022-11-21T11:30:16;12.02;;;8.40;;
75516;SDS011;64097;52.548;13.406;2022-11-21T11:32:43;10.93;;;8.60;;
75516;SDS011;64097;52.548;13.406;2022-11-21T11:40:14;12.93;;;8.88;;
75516;SDS011;64097;52.548;13.406;2022-11-21T11:48:47;13.77;;;9.13;;
75516;SDS011;64097;52.548;13.406;2022-11-21T11:51:19;15.25;;;9.45;;
75516;SDS011;64097;52.548;13.406;2022-11-21T11:53:49;14.55;;;10.52;;
75516;SDS011;64097;52.548;13.406;2022-11-21T11:56:26;13.65;;;9.85;;
75516;SDS011;64097;52.548;13.406;2022-11-21T12:04:18;18.75;;;13.00;;
75516;SDS011;64097;52.548;13.406;2022-11-21T12:13:23;18.27;;;13.75;;
75516;SDS011;64097;52.548;13.406;2022-11-21T12:15:49;19.20;;;13.70;;
75516;SDS011;64097;52.548;13.406;2022-11-21T12:20:50;17.88;;;13.52;;
75516;SDS011;64097;52.548;13.406;2022-11-21T12:23:21;22.98;;;16.38;;
75516;SDS011;64097;52.548;13.406;2022-11-21T12:26:05;20.25;;;15.07;;
75516;SDS011;64097;52.548;13.406;2022-11-21T12:34:28;17.33;;;13.20;;
75516;SDS011;64097;52.548;13.406;2022-11-21T12:37:05;15.93;;;12.02;;
75516;SDS011;64097;52.548;13.406;2022-11-21T12:39:44;18.42;;;13.63;;
75516;SDS011;64097;52.548;13.406;2022-11-21T12:50:38;14.48;;;11.20;;
75516;SDS011;64097;52.548;13.406;2022-11-21T12:53:55;16.50;;;12.45;;
75516;SDS011;64097;52.548;13.406;2022-11-21T12:57:13;16.50;;;12.82;;
75516;SDS011;64097;52.548;13.406;2022-11-21T13:02:29;13.88;;;10.63;;
75516;SDS011;64097;52.548;13.406;2022-11-21T13:05:03;13.60;;;10.15;;
75516;SDS011;64097;52.548;13.406;2022-11-21T13:07:33;11.85;;;9.18;;
75516;SDS011;64097;52.548;13.406;2022-11-21T13:09:59;12.82;;;9.55;;
75516;SDS011;64097;52.548;13.406;2022-11-21T13:17:46;9.95;;;8.13;;
75516;SDS011;64097;52.548;13.406;2022-11-21T13:20:54;10.68;;;8.43;;
75516;SDS011;64097;52.548;13.406;2022-11-21T13:23:40;11.73;;;9.32;;
75516;SDS011;64097;52.548;13.406;2022-11-21T13:29:35;12.32;;;10.13;;
75516;SDS011;64097;52.548;13.406;2022-11-21T13:31:41;11.63;;;9.32;;
75516;SDS011;64097;52.548;13.406;2022-11-21T13:36:55;10.75;;;8.65;;
75516;SDS011;64097;52.548;13.406;2022-11-21T13:39:24;11.13;;;8.55;;
75516;SDS011;64097;52.548;13.406;2022-11-21T13:42:06;10.40;;;8.63;;
75516;SDS011;64097;52.548;13.406;2022-11-21T13:44:52;14.40;;;11.15;;
75516;SDS011;64097;52.548;13.406;2022-11-21T13:53:07;11.80;;;8.38;;
75516;SDS011;64097;52.548;13.406;2022-11-21T14:18:48;12.68;;;9.15;;
75516;SDS011;64097;52.548;13.406;2022-11-21T14:21:19;12.43;;;8.73;;
75516;SDS011;64097;52.548;13.406;2022-11-21T14:23:50;14.32;;;9.38;;
75516;SDS011;64097;52.548;13.406;2022-11-21T14:26:21;12.60;;;9.48;;
75516;SDS011;64097;52.548;13.406;2022-11-21T14:28:49;12.55;;;9.38;;
75516;SDS011;64097;52.548;13.406;2022-11-21T14:31:16;13.70;;;9.68;;
75516;SDS011;64097;52.548;13.406;2022-11-21T14:33:42;13.23;;;9.50;;
75516;SDS011;64097;52.548;13.406;2022-11-21T14:36:22;15.15;;;10.80;;
75516;SDS011;64097;52.548;13.406;2022-11-21T14:38:54;14.55;;;10.90;;
75516;SDS011;64097;52.548;13.406;2022-11-21T14:46:23;17.42;;;12.60;;
75516;SDS011;64097;52.548;13.406;2022-11-21T14:48:50;12.43;;;9.77;;
75516;SDS011;64097;52.548;13.406;2022-11-21T14:51:18;15.57;;;11.18;;
75516;SDS011;64097;52.548;13.406;2022-11-21T14:53:46;13.77;;;10.48;;
75516;SDS011;64097;52.548;13.406;2022-11-21T14:56:26;14.45;;;11.02;;
75516;SDS011;64097;52.548;13.406;2022-11-21T14:58:55;13.93;;;10.20;;
75516;SDS011;64097;52.548;13.406;2022-11-21T15:01:23;13.50;;;10.75;;
75516;SDS011;64097;52.548;13.406;2022-11-21T15:03:58;13.95;;;10.55;;
75516;SDS011;64097;52.548;13.406;2022-11-21T15:06:26;14.70;;;10.65;;
75516;SDS011;64097;52.548;13.406;2022-11-21T15:08:54;13.45;;;10.80;;
75516;SDS011;64097;52.548;13.406;2022-11-21T15:11:31;14.95;;;11.57;;
75516;SDS011;64097;52.548;13.406;2022-11-21T15:14:14;13.85;;;10.88;;
75516;SDS011;64097;52.548;13.406;2022-11-21T15:16:45;15.45;;;10.80;;
75516;SDS011;64097;52.548;13.406;2022-11-21T15:19:20;14.38;;;11.23;;
75516;SDS011;64097;52.548;13.406;2022-11-21T15:21:48;15.63;;;11.68;;
75516;SDS011;64097;52.548;13.406;2022-11-21T15:27:21;15.82;;;12.43;;
75516;SDS011;64097;52.548;13.406;2022-11-21T15:38:20;16.30;;;12.38;;
75516;SDS011;64097;52.548;13.406;2022-11-21T15:46:02;17.83;;;13.57;;
75516;SDS011;64097;52.548;13.406;2022-11-21T15:48:29;17.08;;;14.23;;
75516;SDS011;64097;52.548;13.406;2022-11-21T15:50:55;16.75;;;13.45;;
75516;SDS011;64097;52.548;13.406;2022-11-21T15:53:22;15.10;;;12.43;;
75516;SDS011;64097;52.548;13.406;2022-11-21T15:55:47;15.60;;;12.65;;
75516;SDS011;64097;52.548;13.406;2022-11-21T15:58:13;16.55;;;13.68;;
75516;SDS011;64097;52.548;13.406;2022-11-21T16:00:38;14.98;;;12.38;;
75516;SDS011;64097;52.548;13.406;2022-11-21T16:03:04;19.48;;;14.90;;
75516;SDS011;64097;52.548;13.406;2022-11-21T16:05:30;17.58;;;14.27;;
75516;SDS011;64097;52.548;13.406;2022-11-21T16:07:56;16.15;;;12.93;;
75516;SDS011;64097;52.548;13.406;2022-11-21T16:10:21;17.20;;;13.35;;
75516;SDS011;64097;52.548;13.406;2022-11-21T16:12:47;17.20;;;13.23;;
75516;SDS011;64097;52.548;13.406;2022-11-21T16:15:12;16.42;;;13.63;;
75516;SDS011;64097;52.548;13.406;2022-11-21T16:17:38;16.25;;;12.50;;
75516;SDS011;64097;52.548;13.406;2022-11-21T16:20:05;16.73;;;13.68;;
75516;SDS011;64097;52.548;13.406;2022-11-21T16:22:31;19.08;;;15.50;;
75516;SDS011;64097;52.548;13.406;2022-11-21T16:24:57;18.13;;;14.60;;
75516;SDS011;64097;52.548;13.406;2022-11-21T16:27:23;18.20;;;14.07;;
75516;SDS011;64097;52.548;13.406;2022-11-21T16:29:49;16.25;;;14.02;;
75516;SDS011;64097;52.548;13.406;2022-11-21T16:32:14;14.95;;;11.80;;
75516;SDS011;64097;52.548;13.406;2022-11-21T16:34:40;14.20;;;12.10;;
75516;SDS011;64097;52.548;13.406;2022-11-21T16:37:06;14.88;;;12.35;;
75516;SDS011;64097;52.548;13.406;2022-11-21T16:39:31;14.43;;;12.27;;
75516;SDS011;64097;52.548;13.406;2022-11-21T16:41:57;16.80;;;13.65;;
75516;SDS011;64097;52.548;13.406;2022-11-21T16:44:23;14.75;;;12.40;;
75516;SDS011;64097;52.548;13.406;2022-11-21T16:46:53;15.77;;;12.77;;
75516;SDS011;64097;52.548;13.406;2022-11-21T16:49:19;15.70;;;12.57;;
75516;SDS011;64097;52.548;13.406;2022-11-21T16:51:45;15.40;;;13.10;;
75516;SDS011;64097;52.548;13.406;2022-11-21T16:54:11;15.43;;;12.80;;
75516;SDS011;64097;52.548;13.406;2022-11-21T16:56:36;14.98;;;12.63;;
75516;SDS011;64097;52.548;13.406;2022-11-21T16:59:02;15.18;;;13.20;;
75516;SDS011;64097;52.548;13.406;2022-11-21T17:01:28;17.15;;;14.25;;
75516;SDS011;64097;52.548;13.406;2022-11-21T17:03:54;18.15;;;14.80;;
75516;SDS011;64097;52.548;13.406;2022-11-21T17:06:20;16.40;;;13.30;;
75516;SDS011;64097;52.548;13.406;2022-11-21T17:08:47;18.73;;;14.68;;
75516;SDS011;64097;52.548;13.406;2022-11-21T17:11:17;19.08;;;14.80;;
75516;SDS011;64097;52.548;13.406;2022-11-21T17:13:46;17.85;;;14.52;;
75516;SDS011;64097;52.548;13.406;2022-11-21T17:16:13;18.50;;;14.98;;
75516;SDS011;64097;52.548;13.406;2022-11-21T17:18:40;18.90;;;14.50;;
75516;SDS011;64097;52.548;13.406;2022-11-21T17:21:07;17.92;;;14.00;;
75516;SDS011;64097;52.548;13.406;2022-11-21T17:23:35;18.13;;;14.60;;
75516;SDS011;64097;52.548;13.406;2022-11-21T17:26:02;17.50;;;14.10;;
75516;SDS011;64097;52.548;13.406;2022-11-21T17:28:29;20.08;;;15.20;;
75516;SDS011;64097;52.548;13.406;2022-11-21T17:30:56;20.35;;;16.70;;
75516;SDS011;64097;52.548;13.406;2022-11-21T17:33:22;19.38;;;15.07;;
75516;SDS011;64097;52.548;13.406;2022-11-21T17:35:48;20.42;;;16.48;;
75516;SDS011;64097;52.548;13.406;2022-11-21T17:38:14;24.55;;;18.55;;
75516;SDS011;64097;52.548;13.406;2022-11-21T17:40:40;22.05;;;16.98;;
75516;SDS011;64097;52.548;13.406;2022-11-21T17:43:06;20.58;;;16.52;;
75516;SDS011;64097;52.548;13.406;2022-11-21T17:45:33;21.15;;;16.95;;
75516;SDS011;64097;52.548;13.406;2022-11-21T17:47:59;22.20;;;16.48;;
75516;SDS011;64097;52.548;13.406;2022-11-21T17:50:25;23.00;;;17.63;;
75516;SDS011;64097;52.548;13.406;2022-11-21T17:52:51;21.08;;;16.65;;
75516;SDS011;64097;52.548;13.406;2022-11-21T17:55:17;20.70;;;15.93;;
75516;SDS011;64097;52.548;13.406;2022-11-21T17:57:43;22.50;;;16.80;;
75516;SDS011;64097;52.548;13.406;2022-11-21T18:00:09;20.52;;;16.25;;
75516;SDS011;64097;52.548;13.406;2022-11-21T18:02:35;24.08;;;17.92;;
75516;SDS011;64097;52.548;13.406;2022-11-21T18:05:01;23.42;;;16.77;;
75516;SDS011;64097;52.548;13.406;2022-11-21T18:07:27;21.58;;;16.83;;
75516;SDS011;64097;52.548;13.406;2022-11-21T18:09:54;24.58;;;18.33;;
75516;SDS011;64097;52.548;13.406;2022-11-21T18:12:21;23.48;;;17.52;;
75516;SDS011;64097;52.548;13.406;2022-11-21T18:14:47;22.02;;;17.35;;
75516;SDS011;64097;52.548;13.406;2022-11-21T18:17:12;24.42;;;18.60;;
75516;SDS011;64097;52.548;13.406;2022-11-21T18:19:38;22.75;;;17.30;;
75516;SDS011;64097;52.548;13.406;2022-11-21T18:22:04;23.55;;;17.38;;
75516;SDS011;64097;52.548;13.406;2022-11-21T18:24:30;22.77;;;17.40;;
75516;SDS011;64097;52.548;13.406;2022-11-21T18:26:56;21.88;;;16.77;;
75516;SDS011;64097;52.548;13.406;2022-11-21T18:29:21;21.50;;;16.65;;
75516;SDS011;64097;52.548;13.406;2022-11-21T18:31:48;22.83;;;17.30;;
75516;SDS011;64097;52.548;13.406;2022-11-21T18:34:14;20.92;;;15.90;;
75516;SDS011;64097;52.548;13.406;2022-11-21T18:36:40;22.17;;;17.23;;
75516;SDS011;64097;52.548;13.406;2022-11-21T18:39:05;23.67;;;18.23;;
75516;SDS011;64097;52.548;13.406;2022-11-21T18:41:32;21.75;;;15.93;;
75516;SDS011;64097;52.548;13.406;2022-11-21T18:44:02;22.88;;;17.20;;
75516;SDS011;64097;52.548;13.406;2022-11-21T18:46:29;27.25;;;20.50;;
75516;SDS011;64097;52.548;13.406;2022-11-21T18:48:56;27.55;;;19.17;;
75516;SDS011;64097;52.548;13.406;2022-11-21T18:51:23;21.65;;;16.63;;
75516;SDS011;64097;52.548;13.406;2022-11-21T18:53:55;24.92;;;18.33;;
75516;SDS011;64097;52.548;13.406;2022-11-21T18:56:22;22.65;;;17.08;;
75516;SDS011;64097;52.548;13.406;2022-11-21T18:58:52;26.33;;;18.60;;
75516;SDS011;64097;52.548;13.406;2022-11-21T19:01:18;23.73;;;17.50;;
75516;SDS011;64097;52.548;13.406;2022-11-21T19:03:46;25.48;;;18.50;;
75516;SDS011;64097;52.548;13.406;2022-11-21T19:06:13;26.83;;;18.08;;
75516;SDS011;64097;52.548;13.406;2022-11-21T19:08:42;21.92;;;16.15;;
75516;SDS011;64097;52.548;13.406;2022-11-21T19:11:09;24.58;;;18.60;;
75516;SDS011;64097;52.548;13.406;2022-11-21T19:13:36;23.35;;;17.73;;
75516;SDS011;64097;52.548;13.406;2022-11-21T19:16:03;22.73;;;17.45;;
75516;SDS011;64097;52.548;13.406;2022-11-21T19:18:34;23.83;;;17.52;;
75516;SDS011;64097;52.548;13.406;2022-11-21T19:21:01;22.83;;;16.80;;
75516;SDS011;64097;52.548;13.406;2022-11-21T19:23:29;24.15;;;18.00;;
75516;SDS011;64097;52.548;13.406;2022-11-21T19:25:59;19.30;;;15.20;;
75516;SDS011;64097;52.548;13.406;2022-11-21T19:28:29;23.77;;;16.73;;
75516;SDS011;64097;52.548;13.406;2022-11-21T19:30:56;22.35;;;16.08;;
75516;SDS011;64097;52.548;13.406;2022-11-21T19:33:22;23.08;;;17.13;;
75516;SDS011;64097;52.548;13.406;2022-11-21T19:35:49;23.77;;;17.25;;
75516;SDS011;64097;52.548;13.406;2022-11-21T19:38:16;19.92;;;15.35;;
75516;SDS011;64097;52.548;13.406;2022-11-21T19:40:42;22.77;;;17.30;;
75516;SDS011;64097;52.548;13.406;2022-11-21T19:45:55;22.52;;;16.42;;
75516;SDS011;64097;52.548;13.406;2022-11-21T19:48:25;22.52;;;16.88;;
75516;SDS011;64097;52.548;13.406;2022-11-21T19:50:54;23.52;;;17.38;;
75516;SDS011;64097;52.548;13.406;2022-11-21T19:53:21;22.02;;;17.60;;
75516;SDS011;64097;52.548;13.406;2022-11-21T19:55:47;22.10;;;16.48;;
75516;SDS011;64097;52.548;13.406;2022-11-21T19:58:12;19.80;;;15.60;;
75516;SDS011;64097;52.548;13.406;2022-11-21T20:00:38;21.45;;;16.88;;
75516;SDS011;64097;52.548;13.406;2022-11-21T20:03:04;18.70;;;14.68;;
75516;SDS011;64097;52.548;13.406;2022-11-21T20:05:29;19.55;;;14.70;;
75516;SDS011;64097;52.548;13.406;2022-11-21T20:07:55;21.77;;;16.98;;
75516;SDS011;64097;52.548;13.406;2022-11-21T20:10:21;20.30;;;15.23;;
75516;SDS011;64097;52.548;13.406;2022-11-21T20:12:46;18.05;;;14.77;;
75516;SDS011;64097;52.548;13.406;2022-11-21T20:15:12;21.27;;;16.08;;
75516;SDS011;64097;52.548;13.406;2022-11-21T20:17:38;20.38;;;15.60;;
75516;SDS011;64097;52.548;13.406;2022-11-21T20:20:04;21.08;;;15.07;;
75516;SDS011;64097;52.548;13.406;2022-11-21T20:22:31;19.00;;;14.40;;
75516;SDS011;64097;52.548;13.406;2022-11-21T20:24:56;19.90;;;15.68;;
75516;SDS011;64097;52.548;13.406;2022-11-21T20:27:22;20.25;;;15.80;;
75516;SDS011;64097;52.548;13.406;2022-11-21T20:29:48;19.42;;;14.82;;
75516;SDS011;64097;52.548;13.406;2022-11-21T20:32:14;17.05;;;13.30;;
75516;SDS011;64097;52.548;13.406;2022-11-21T20:34:39;17.70;;;13.82;;
75516;SDS011;64097;52.548;13.406;2022-11-21T20:37:05;20.15;;;15.18;;
75516;SDS011;64097;52.548;13.406;2022-11-21T20:39:31;22.80;;;16.33;;
75516;SDS011;64097;52.548;13.406;2022-11-21T20:41:57;20.08;;;14.70;;
75516;SDS011;64097;52.548;13.406;2022-11-21T20:44:23;22.20;;;15.50;;
75516;SDS011;64097;52.548;13.406;2022-11-21T20:46:50;23.55;;;16.10;;
75516;SDS011;64097;52.548;13.406;2022-11-21T20:49:15;20.20;;;14.40;;
75516;SDS011;64097;52.548;13.406;2022-11-21T20:51:41;18.90;;;14.52;;
75516;SDS011;64097;52.548;13.406;2022-11-21T20:54:08;18.20;;;14.05;;
75516;SDS011;64097;52.548;13.406;2022-11-21T20:56:34;20.08;;;14.23;;
75516;SDS011;64097;52.548;13.406;2022-11-21T20:59:02;18.45;;;13.80;;
75516;SDS011;64097;52.548;13.406;2022-11-21T21:01:28;17.23;;;13.13;;
75516;SDS011;64097;52.548;13.406;2022-11-21T21:03:54;16.45;;;12.85;;
75516;SDS011;64097;52.548;13.406;2022-11-21T21:06:20;16.95;;;12.93;;
75516;SDS011;64097;52.548;13.406;2022-11-21T21:08:48;17.33;;;13.25;;
75516;SDS011;64097;52.548;13.406;2022-11-21T21:11:21;17.38;;;13.27;;
75516;SDS011;64097;52.548;13.406;2022-11-21T21:13:48;18.35;;;13.30;;
75516;SDS011;64097;52.548;13.406;2022-11-21T21:16:18;17.02;;;12.70;;
75516;SDS011;64097;52.548;13.406;2022-11-21T21:18:46;16.88;;;12.70;;
75516;SDS011;64097;52.548;13.406;2022-11-21T21:21:13;17.30;;;13.13;;
75516;SDS011;64097;52.548;13.406;2022-11-21T21:23:41;16.48;;;11.93;;
75516;SDS011;64097;52.548;13.406;2022-11-21T21:26:19;17.52;;;13.18;;
75516;SDS011;64097;52.548;13.406;2022-11-21T21:28:46;16.95;;;13.35;;
75516;SDS011;64097;52.548;13.406;2022-11-21T21:31:13;15.10;;;11.95;;
75516;SDS011;64097;52.548;13.406;2022-11-21T21:33:40;16.42;;;13.00;;
75516;SDS011;64097;52.548;13.406;2022-11-21T21:36:10;16.02;;;12.65;;
75516;SDS011;64097;52.548;13.406;2022-11-21T21:38:37;17.08;;;12.90;;
75516;SDS011;64097;52.548;13.406;2022-11-21T21:41:05;15.13;;;11.63;;
75516;SDS011;64097;52.548;13.406;2022-11-21T21:43:33;15.07;;;11.70;;
75516;SDS011;64097;52.548;13.406;2022-11-21T21:46:06;16.65;;;12.65;;
75516;SDS011;64097;52.548;13.406;2022-11-21T21:48:35;16.98;;;13.07;;
75516;SDS011;64097;52.548;13.406;2022-11-21T21:51:02;17.25;;;13.05;;
75516;SDS011;64097;52.548;13.406;2022-11-21T21:53:35;15.63;;;12.80;;
75516;SDS011;64097;52.548;13.406;2022-11-21T21:56:02;17.13;;;12.85;;
75516;SDS011;64097;52.548;13.406;2022-11-21T21:58:30;20.33;;;15.65;;
75516;SDS011;64097;52.548;13.406;2022-11-21T22:01:01;17.92;;;13.80;;
75516;SDS011;64097;52.548;13.406;2022-11-21T22:03:28;18.13;;;13.40;;
75516;SDS011;64097;52.548;13.406;2022-11-21T22:05:58;16.98;;;13.02;;
75516;SDS011;64097;52.548;13.406;2022-11-21T22:08:35;16.25;;;12.95;;
75516;SDS011;64097;52.548;13.406;2022-11-21T22:11:02;16.15;;;12.70;;
75516;SDS011;64097;52.548;13.406;2022-11-21T22:13:42;17.77;;;14.27;;
75516;SDS011;64097;52.548;13.406;2022-11-21T22:16:10;19.80;;;14.93;;
75516;SDS011;64097;52.548;13.406;2022-11-21T22:18:36;17.35;;;14.35;;
75516;SDS011;64097;52.548;13.406;2022-11-21T22:23:37;17.80;;;13.95;;
75516;SDS011;64097;52.548;13.406;2022-11-21T22:26:03;21.33;;;15.73;;
75516;SDS011;64097;52.548;13.406;2022-11-21T22:28:28;20.48;;;15.48;;
75516;SDS011;64097;52.548;13.406;2022-11-21T22:30:55;20.75;;;15.23;;
75516;SDS011;64097;52.548;13.406;2022-11-21T22:33:22;19.48;;;14.38;;
75516;SDS011;64097;52.548;13.406;2022-11-21T22:35:49;17.95;;;13.93;;
75516;SDS011;64097;52.548;13.406;2022-11-21T22:38:15;20.80;;;15.43;;
75516;SDS011;64097;52.548;13.406;2022-11-21T22:40:41;18.50;;;13.75;;
75516;SDS011;64097;52.548;13.406;2022-11-21T22:43:07;18.85;;;14.10;;
75516;SDS011;64097;52.548;13.406;2022-11-21T22:45:33;20.90;;;14.32;;